Oakwood, Oklahoma
Current Conditions -  °F | °C
As of 5:35 AM on Tuesday 21 Oct 2014 (Local Time) from KJWG Reporting Station
Haze Haze  
Wind Chill: 57°   Ceiling: 5500
Heat Index: 57°   Visibility: 3mi
Dew Point: 57°   Wind: 0mph
Humidity: 100%   Direction: NA
Pressure: 30.07"   Gusts: NA
Location:  35.93°N, 98.71°W
Report Text: KJWG 211035Z AUTO 00000KT 3SM BR BKN055 14/14 A3007 RMK AO2 T01370137
Loading
Personal Weather Stations






























Interactive Weather Map New forecast layout! Learn more

10-Day Weather Forecast

Advertisements
Track Severe Weather on mobile